CYYG

Charlottetown Airport

Charlottetown, Prince Edward Island, Canada
METAR CYYG 220600Z 25006KT 15SM SCT054 OVC066 01/M04 A3009 RMK SC3AC5 SLP193
Observed Flight Rules
Apr-22 @ 06:00 UTC (49 minutes ago) Visual Flight Rules
Wind Visibility Clouds
250° at 6 knots 15 miles
  • Scattered at 5,400' AGL
  • Overcast at 6,600' AGL
Temperatures Readings
Current 1°C / 34°F
Dewpoint -4°C / 25°F
Humidity 70%
Altimeter 30.09" Hg
Pressure 1019.3 hPa
Elevation 54
METAR CYYG 220600Z 25006KT 15SM SCT054 OVC066 01/M04 A3009 RMK SC3AC5 SLP193
Observed Flight Rules
Apr-22 @ 06:00 UTC
(49 minutes ago)
VFR
Wind Visibility
250° at 6 knots 15 miles
Clouds
  • Scattered at 5,400' AGL
  • Overcast at 6,600' AGL
Temperature Dewpoint
1°C / 34°F -4°C / 25°F
Humidity Altimeter Pressure
70% 30.09" Hg 1019.3 hPa